createdAt,value
2017-07-08T00:00:47.126Z,90.00
2017-07-08T00:01:47.090Z,247.50
2017-07-08T00:02:47.123Z,67.50
2017-07-08T00:03:47.040Z,315.00
2017-07-08T00:04:47.116Z,135.00
2017-07-08T00:05:47.115Z,180.00
2017-07-08T00:06:47.112Z,22.50
2017-07-08T00:07:47.110Z,135.00
2017-07-08T00:08:47.111Z,247.50
2017-07-08T00:09:47.116Z,225.00
2017-07-08T00:10:47.121Z,45.00
2017-07-08T00:11:47.025Z,67.50
2017-07-08T00:12:47.114Z,112.50
2017-07-08T00:13:47.125Z,45.00
2017-07-08T00:14:47.046Z,112.50
2017-07-08T00:15:47.120Z,112.50
2017-07-08T00:16:47.136Z,22.50
2017-07-08T00:17:47.130Z,45.00
2017-07-08T00:18:47.044Z,202.50
2017-07-08T00:19:47.048Z,157.50
2017-07-08T00:20:47.097Z,112.50
2017-07-08T00:21:47.130Z,315.00
2017-07-08T00:22:47.116Z,0.00
2017-07-08T00:23:47.129Z,337.50
2017-07-08T00:24:47.050Z,90.00
2017-07-08T00:25:47.140Z,180.00
2017-07-08T00:26:47.067Z,270.00
2017-07-08T00:27:47.049Z,247.50
2017-07-08T00:28:47.053Z,157.50
2017-07-08T00:29:47.043Z,292.50
2017-07-08T00:30:47.131Z,337.50
2017-07-08T00:31:47.048Z,67.50
2017-07-08T00:32:47.057Z,22.50
2017-07-08T00:33:47.141Z,90.00
2017-07-08T00:34:47.111Z,22.50
2017-07-08T00:35:47.105Z,22.50
2017-07-08T00:36:47.110Z,112.50
2017-07-08T00:37:47.110Z,22.50
2017-07-08T00:38:47.108Z,45.00
2017-07-08T00:39:47.111Z,270.00
2017-07-08T00:40:47.110Z,247.50
2017-07-08T00:41:47.112Z,67.50
2017-07-08T00:42:47.112Z,202.50
2017-07-08T00:43:47.113Z,22.50
2017-07-08T00:44:47.112Z,202.50
2017-07-08T00:45:47.061Z,67.50
2017-07-08T00:46:47.143Z,67.50
2017-07-08T00:47:47.152Z,22.50
2017-07-08T00:48:47.058Z,22.50
2017-07-08T00:49:47.143Z,22.50
2017-07-08T00:50:47.153Z,22.50
2017-07-08T00:51:47.130Z,22.50
2017-07-08T00:52:47.154Z,22.50
2017-07-08T00:53:47.145Z,0.00
2017-07-08T00:54:47.143Z,67.50
2017-07-08T00:55:47.146Z,22.50
2017-07-08T00:56:47.147Z,0.00
2017-07-08T00:57:47.141Z,337.50
2017-07-08T00:58:47.121Z,337.50
2017-07-08T00:59:47.150Z,45.00
2017-07-08T01:00:47.074Z,0.00
2017-07-08T01:01:47.123Z,22.50
2017-07-08T01:02:47.151Z,45.00
2017-07-08T01:03:47.149Z,112.50
2017-07-08T01:04:47.148Z,45.00
2017-07-08T01:05:47.060Z,45.00
2017-07-08T01:06:47.096Z,45.00
2017-07-08T01:07:47.062Z,45.00
2017-07-08T01:08:47.152Z,67.50
2017-07-08T01:09:47.251Z,67.50
2017-07-08T01:10:47.149Z,45.00
2017-07-08T01:11:47.155Z,45.00
2017-07-08T01:12:47.154Z,45.00
2017-07-08T01:13:47.141Z,22.50
2017-07-08T01:14:47.129Z,22.50
2017-07-08T01:15:47.131Z,22.50
2017-07-08T01:16:47.219Z,180.00
2017-07-08T01:17:47.130Z,22.50
2017-07-08T01:18:47.129Z,45.00
2017-07-08T01:19:47.133Z,67.50
2017-07-08T01:20:47.133Z,45.00
2017-07-08T01:21:47.133Z,45.00
2017-07-08T01:22:47.132Z,22.50
2017-07-08T01:23:47.132Z,22.50
2017-07-08T01:24:47.163Z,67.50
2017-07-08T01:25:47.160Z,67.50
2017-07-08T01:26:47.086Z,67.50
2017-07-08T01:27:47.165Z,67.50
2017-07-08T01:28:47.174Z,45.00
2017-07-08T01:29:47.167Z,45.00
2017-07-08T01:30:47.176Z,67.50
2017-07-08T01:31:47.183Z,45.00
2017-07-08T01:32:47.138Z,22.50
2017-07-08T01:33:47.087Z,90.00
2017-07-08T01:34:47.134Z,45.00
2017-07-08T01:35:47.089Z,22.50
2017-07-08T01:36:47.107Z,0.00
2017-07-08T01:37:47.178Z,22.50
2017-07-08T01:38:47.173Z,22.50
2017-07-08T01:39:47.180Z,22.50
2017-07-08T01:40:47.172Z,67.50
2017-07-08T01:41:47.173Z,90.00
2017-07-08T01:42:47.142Z,67.50
2017-07-08T01:43:47.180Z,45.00
2017-07-08T01:44:47.167Z,45.00
2017-07-08T01:45:47.179Z,45.00
2017-07-08T01:46:47.143Z,90.00
2017-07-08T01:47:47.176Z,67.50
2017-07-08T01:48:47.165Z,90.00
2017-07-08T01:49:47.179Z,112.50
2017-07-08T01:50:47.176Z,112.50
2017-07-08T01:51:47.175Z,135.00
2017-07-08T01:52:47.188Z,135.00
2017-07-08T01:53:47.187Z,90.00
2017-07-08T01:54:47.149Z,90.00
2017-07-08T01:55:47.184Z,90.00
2017-07-08T01:56:47.180Z,90.00
2017-07-08T01:57:47.190Z,67.50
2017-07-08T01:58:47.175Z,67.50
2017-07-08T01:59:47.180Z,67.50
2017-07-08T02:00:47.190Z,45.00
2017-07-08T02:01:47.153Z,45.00
2017-07-08T02:02:47.107Z,45.00
2017-07-08T02:03:47.185Z,45.00
2017-07-08T02:04:47.178Z,22.50
2017-07-08T02:05:47.108Z,45.00
2017-07-08T02:06:47.156Z,45.00
2017-07-08T02:07:47.184Z,67.50
2017-07-08T02:08:47.087Z,45.00
2017-07-08T02:09:47.100Z,45.00
2017-07-08T02:10:47.189Z,45.00
2017-07-08T02:11:47.110Z,45.00
2017-07-08T02:12:47.158Z,22.50
2017-07-08T02:13:47.180Z,202.50
2017-07-08T02:14:47.190Z,315.00
2017-07-08T02:15:47.167Z,315.00
2017-07-08T02:16:47.101Z,247.50
2017-07-08T02:17:47.187Z,22.50
2017-07-08T02:18:47.181Z,315.00
2017-07-08T02:19:47.099Z,0.00
2017-07-08T02:20:47.116Z,225.00
2017-07-08T02:21:47.107Z,22.50
2017-07-08T02:22:47.098Z,22.50
2017-07-08T02:23:47.132Z,67.50
2017-07-08T02:24:47.293Z,67.50
2017-07-08T02:25:47.171Z,67.50
2017-07-08T02:26:47.173Z,22.50
2017-07-08T02:27:47.174Z,45.00
2017-07-08T02:28:47.198Z,22.50
2017-07-08T02:29:47.177Z,45.00
2017-07-08T02:30:47.176Z,45.00
2017-07-08T02:31:47.121Z,45.00
2017-07-08T02:32:47.177Z,45.00
2017-07-08T02:33:47.163Z,315.00
2017-07-08T02:34:47.176Z,45.00
2017-07-08T02:35:47.167Z,67.50
2017-07-08T02:36:47.202Z,67.50
2017-07-08T02:37:47.192Z,67.50
2017-07-08T02:38:47.106Z,112.50
2017-07-08T02:39:47.208Z,135.00
2017-07-08T02:40:47.208Z,135.00
2017-07-08T02:41:47.208Z,90.00
2017-07-08T02:42:47.117Z,112.50
2017-07-08T02:43:47.111Z,67.50
2017-07-08T02:44:47.207Z,45.00
2017-07-08T02:45:47.182Z,45.00
2017-07-08T02:46:47.182Z,67.50
2017-07-08T02:47:47.182Z,45.00
2017-07-08T02:48:47.187Z,22.50
2017-07-08T02:49:47.183Z,22.50
2017-07-08T02:50:47.187Z,135.00
2017-07-08T02:51:47.188Z,22.50
2017-07-08T02:52:47.186Z,22.50
2017-07-08T02:53:47.189Z,22.50
2017-07-08T02:54:47.186Z,45.00
2017-07-08T02:55:47.135Z,67.50
2017-07-08T02:56:47.180Z,67.50
2017-07-08T02:57:47.217Z,67.50
2017-07-08T02:58:47.227Z,67.50
2017-07-08T02:59:47.190Z,67.50
2017-07-08T03:00:47.213Z,67.50
2017-07-08T03:01:47.218Z,90.00
2017-07-08T03:02:47.222Z,90.00
2017-07-08T03:03:47.221Z,67.50
2017-07-08T03:04:47.186Z,45.00
2017-07-08T03:05:47.138Z,22.50
2017-07-08T03:06:47.161Z,45.00
2017-07-08T03:07:47.234Z,45.00
2017-07-08T03:08:47.148Z,90.00
2017-07-08T03:09:47.223Z,45.00
2017-07-08T03:10:47.239Z,22.50
2017-07-08T03:11:47.217Z,22.50
2017-07-08T03:12:47.223Z,22.50
2017-07-08T03:13:47.238Z,45.00
2017-07-08T03:14:47.146Z,67.50
2017-07-08T03:15:47.217Z,45.00
2017-07-08T03:16:47.225Z,22.50
2017-07-08T03:17:47.224Z,67.50
2017-07-08T03:18:47.133Z,45.00
2017-07-08T03:19:47.226Z,45.00
2017-07-08T03:20:47.223Z,45.00
2017-07-08T03:21:47.142Z,45.00
2017-07-08T03:22:47.135Z,45.00
2017-07-08T03:23:47.146Z,45.00
2017-07-08T03:24:47.226Z,45.00
2017-07-08T03:25:47.207Z,45.00
2017-07-08T03:26:47.209Z,45.00
2017-07-08T03:27:47.209Z,22.50
2017-07-08T03:28:47.207Z,67.50
2017-07-08T03:29:47.207Z,45.00
2017-07-08T03:30:47.208Z,22.50
2017-07-08T03:31:47.211Z,45.00
2017-07-08T03:32:47.211Z,67.50
2017-07-08T03:33:47.212Z,90.00
2017-07-08T03:34:47.208Z,67.50
2017-07-08T03:35:47.210Z,67.50
2017-07-08T03:36:47.210Z,67.50
2017-07-08T03:37:47.211Z,45.00
2017-07-08T03:38:47.212Z,45.00
2017-07-08T03:39:47.213Z,22.50
2017-07-08T03:40:47.215Z,22.50
2017-07-08T03:41:47.212Z,22.50
2017-07-08T03:42:47.213Z,22.50
2017-07-08T03:43:47.213Z,45.00
2017-07-08T03:44:47.216Z,67.50
2017-07-08T03:45:47.242Z,112.50
2017-07-08T03:46:47.230Z,135.00
2017-07-08T03:47:47.167Z,112.50
2017-07-08T03:48:47.252Z,112.50
2017-07-08T03:49:47.232Z,45.00
2017-07-08T03:50:47.240Z,112.50
2017-07-08T03:51:47.249Z,90.00
2017-07-08T03:52:47.213Z,22.50
2017-07-08T03:53:47.244Z,45.00
2017-07-08T03:54:47.248Z,90.00
2017-07-08T03:55:47.238Z,112.50
2017-07-08T03:56:47.238Z,112.50
2017-07-08T03:57:47.231Z,112.50
2017-07-08T03:58:47.250Z,112.50
2017-07-08T03:59:47.222Z,112.50
2017-07-08T04:00:47.252Z,112.50
2017-07-08T04:01:47.239Z,90.00
2017-07-08T04:02:47.239Z,90.00
2017-07-08T04:03:47.238Z,112.50
2017-07-08T04:04:47.240Z,90.00
2017-07-08T04:05:47.253Z,90.00
2017-07-08T04:06:47.157Z,45.00
2017-07-08T04:07:47.248Z,67.50
2017-07-08T04:08:47.257Z,90.00
2017-07-08T04:09:47.158Z,90.00
2017-07-08T04:10:47.249Z,90.00
2017-07-08T04:11:47.257Z,90.00
2017-07-08T04:12:47.170Z,90.00
2017-07-08T04:13:47.256Z,90.00
2017-07-08T04:14:47.253Z,90.00
2017-07-08T04:15:47.265Z,112.50
2017-07-08T04:16:47.172Z,90.00
2017-07-08T04:17:47.174Z,90.00
2017-07-08T04:18:47.162Z,157.50
2017-07-08T04:19:47.173Z,157.50
2017-07-08T04:20:47.157Z,157.50
2017-07-08T04:21:47.221Z,112.50
2017-07-08T04:22:47.268Z,112.50
2017-07-08T04:23:47.208Z,157.50
2017-07-08T04:24:47.275Z,90.00
2017-07-08T04:25:47.248Z,202.50
2017-07-08T04:26:47.251Z,45.00
2017-07-08T04:27:47.251Z,45.00
2017-07-08T04:28:47.258Z,45.00
2017-07-08T04:29:47.263Z,157.50
2017-07-08T04:30:47.253Z,135.00
2017-07-08T04:31:47.254Z,112.50
2017-07-08T04:32:47.253Z,90.00
2017-07-08T04:33:47.267Z,112.50
2017-07-08T04:34:47.267Z,135.00
2017-07-08T04:35:47.268Z,180.00
2017-07-08T04:36:47.185Z,135.00
2017-07-08T04:37:47.271Z,67.50
2017-07-08T04:38:47.183Z,45.00
2017-07-08T04:39:47.233Z,22.50
2017-07-08T04:40:47.275Z,292.50
2017-07-08T04:41:47.282Z,292.50
2017-07-08T04:42:47.277Z,202.50
2017-07-08T04:43:47.278Z,337.50
2017-07-08T04:44:47.188Z,337.50
2017-07-08T04:45:47.283Z,315.00
2017-07-08T04:46:47.201Z,202.50
2017-07-08T04:47:47.257Z,45.00
2017-07-08T04:48:47.283Z,202.50
2017-07-08T04:49:47.202Z,247.50
2017-07-08T04:50:47.247Z,292.50
2017-07-08T04:51:47.263Z,225.00
2017-07-08T04:52:47.204Z,180.00
2017-07-08T04:53:47.278Z,67.50
2017-07-08T04:54:47.240Z,202.50
2017-07-08T04:55:47.281Z,90.00
2017-07-08T04:56:47.264Z,22.50
2017-07-08T04:57:47.180Z,45.00
2017-07-08T04:58:47.268Z,247.50
2017-07-08T04:59:47.272Z,202.50
2017-07-08T05:00:47.257Z,225.00
2017-07-08T05:01:47.271Z,202.50
2017-07-08T05:02:47.274Z,247.50
2017-07-08T05:03:47.272Z,270.00
2017-07-08T05:04:47.270Z,202.50
2017-07-08T05:05:47.262Z,157.50
2017-07-08T05:06:47.257Z,315.00
2017-07-08T05:07:47.257Z,292.50
2017-07-08T05:08:47.259Z,315.00
2017-07-08T05:09:47.258Z,292.50
2017-07-08T05:10:47.362Z,112.50
2017-07-08T05:11:47.260Z,225.00
2017-07-08T05:13:47.261Z,112.50
2017-07-08T05:14:47.263Z,202.50
2017-07-08T05:15:47.291Z,225.00
2017-07-08T05:16:47.292Z,135.00
2017-07-08T05:17:47.290Z,202.50
2017-07-08T05:18:47.302Z,270.00
2017-07-08T05:19:47.305Z,315.00
2017-07-08T05:20:47.296Z,45.00
2017-07-08T05:21:47.299Z,157.50
2017-07-08T05:22:47.290Z,90.00
2017-07-08T05:23:47.285Z,135.00
2017-07-08T05:24:47.219Z,202.50
2017-07-08T05:25:47.294Z,247.50
2017-07-08T05:26:47.389Z,315.00
2017-07-08T05:27:47.281Z,247.50
2017-07-08T05:28:47.283Z,112.50
2017-07-08T05:29:47.286Z,112.50
2017-07-08T05:30:47.289Z,135.00
2017-07-08T05:31:47.287Z,157.50
2017-07-08T05:32:47.289Z,45.00
2017-07-08T05:33:47.410Z,22.50
2017-07-08T05:34:47.283Z,315.00
2017-07-08T05:35:47.317Z,337.50
2017-07-08T05:36:47.310Z,337.50
2017-07-08T05:37:47.275Z,315.00
2017-07-08T05:38:47.262Z,180.00
2017-07-08T05:39:47.313Z,225.00
2017-07-08T05:40:47.268Z,315.00
2017-07-08T05:41:47.311Z,337.50
2017-07-08T05:42:47.293Z,202.50
2017-07-08T05:43:47.224Z,22.50
2017-07-08T05:44:47.313Z,67.50
2017-07-08T05:45:47.313Z,67.50
2017-07-08T05:46:47.330Z,67.50
2017-07-08T05:47:47.243Z,90.00
2017-07-08T05:48:47.245Z,90.00
2017-07-08T05:49:47.319Z,90.00
2017-07-08T05:50:47.314Z,157.50
2017-07-08T05:51:47.302Z,157.50
2017-07-08T05:52:47.319Z,22.50
2017-07-08T05:53:47.287Z,67.50
2017-07-08T05:54:47.231Z,180.00
2017-07-08T05:55:47.303Z,225.00
2017-07-08T05:56:47.289Z,292.50
2017-07-08T05:57:47.291Z,112.50
2017-07-08T05:58:47.287Z,157.50
2017-07-08T05:59:47.290Z,202.50
2017-07-08T06:00:47.290Z,202.50
2017-07-08T06:01:47.290Z,135.00
2017-07-08T06:02:47.290Z,180.00
2017-07-08T06:03:47.292Z,202.50
2017-07-08T06:04:47.293Z,157.50
2017-07-08T06:05:47.296Z,247.50
2017-07-08T06:06:47.318Z,247.50
2017-07-08T06:07:47.321Z,270.00
2017-07-08T06:08:47.328Z,247.50
2017-07-08T06:09:47.244Z,270.00
2017-07-08T06:10:47.307Z,247.50
2017-07-08T06:11:47.249Z,270.00
2017-07-08T06:12:47.335Z,247.50
2017-07-08T06:13:47.325Z,247.50
2017-07-08T06:14:47.323Z,247.50
2017-07-08T06:15:47.318Z,202.50
2017-07-08T06:16:47.230Z,247.50
2017-07-08T06:17:47.237Z,270.00
2017-07-08T06:18:47.302Z,270.00
2017-07-08T06:19:47.327Z,180.00
2017-07-08T06:20:47.242Z,270.00
2017-07-08T06:21:47.428Z,202.50
2017-07-08T06:22:47.296Z,270.00
2017-07-08T06:23:47.351Z,270.00
2017-07-08T06:24:47.348Z,202.50
2017-07-08T06:25:47.319Z,292.50
2017-07-08T06:26:47.321Z,225.00
2017-07-08T06:27:47.320Z,247.50
2017-07-08T06:28:47.318Z,180.00
2017-07-08T06:29:47.321Z,225.00
2017-07-08T06:30:47.327Z,202.50
2017-07-08T06:31:47.323Z,270.00
2017-07-08T06:32:47.324Z,270.00
2017-07-08T06:33:47.323Z,270.00
2017-07-08T06:34:47.326Z,270.00
2017-07-08T06:35:47.322Z,247.50
2017-07-08T06:36:47.308Z,247.50
2017-07-08T06:37:47.313Z,247.50
2017-07-08T06:38:47.310Z,270.00
2017-07-08T06:39:47.310Z,247.50
2017-07-08T06:40:47.310Z,292.50
2017-07-08T06:41:47.312Z,247.50
2017-07-08T06:42:47.311Z,270.00
2017-07-08T06:43:47.312Z,270.00
2017-07-08T06:44:47.311Z,270.00
2017-07-08T06:45:47.318Z,225.00
2017-07-08T06:46:47.355Z,247.50
2017-07-08T06:47:47.359Z,292.50
2017-07-08T06:48:47.309Z,270.00
2017-07-08T06:49:47.355Z,270.00
2017-07-08T06:50:47.316Z,225.00
2017-07-08T06:51:47.340Z,225.00
2017-07-08T06:52:47.340Z,292.50
2017-07-08T06:53:47.338Z,292.50
2017-07-08T06:54:47.332Z,225.00
2017-07-08T06:55:47.363Z,202.50
2017-07-08T06:56:47.251Z,292.50
2017-07-08T06:57:47.341Z,292.50
2017-07-08T06:58:47.326Z,292.50
2017-07-08T06:59:47.333Z,292.50
2017-07-08T07:00:47.336Z,247.50
2017-07-08T07:01:47.335Z,270.00
2017-07-08T07:02:47.334Z,292.50
2017-07-08T07:03:47.339Z,270.00
2017-07-08T07:04:47.336Z,270.00
2017-07-08T07:05:47.338Z,292.50
2017-07-08T07:06:47.359Z,292.50
2017-07-08T07:07:47.361Z,270.00
2017-07-08T07:08:47.275Z,225.00
2017-07-08T07:09:47.355Z,202.50
2017-07-08T07:10:47.274Z,270.00
2017-07-08T07:11:47.361Z,292.50
2017-07-08T07:12:47.346Z,292.50
2017-07-08T07:13:47.364Z,270.00
2017-07-08T07:14:47.279Z,292.50
2017-07-08T07:15:47.392Z,225.00
2017-07-08T07:16:47.348Z,270.00
2017-07-08T07:17:47.345Z,247.50
2017-07-08T07:18:47.348Z,292.50
2017-07-08T07:19:47.344Z,225.00
2017-07-08T07:20:47.427Z,247.50
2017-07-08T07:21:47.360Z,292.50
2017-07-08T07:22:47.361Z,247.50
2017-07-08T07:23:47.347Z,247.50
2017-07-08T07:24:47.350Z,292.50
2017-07-08T07:25:47.349Z,292.50
2017-07-08T07:26:47.287Z,292.50
2017-07-08T07:27:47.364Z,270.00
2017-07-08T07:28:47.376Z,247.50
2017-07-08T07:29:47.367Z,270.00
2017-07-08T07:30:47.337Z,270.00
2017-07-08T07:31:47.291Z,247.50
2017-07-08T07:32:47.364Z,225.00
2017-07-08T07:33:47.366Z,270.00
2017-07-08T07:34:47.377Z,270.00
2017-07-08T07:35:47.378Z,270.00
2017-07-08T07:36:47.364Z,180.00
2017-07-08T07:37:47.359Z,180.00
2017-07-08T07:38:47.374Z,180.00
2017-07-08T07:39:47.478Z,247.50
2017-07-08T07:40:47.286Z,247.50
2017-07-08T07:41:47.432Z,247.50
2017-07-08T07:42:47.297Z,292.50
2017-07-08T07:43:47.347Z,292.50
2017-07-08T07:44:47.360Z,292.50
2017-07-08T07:45:47.372Z,292.50
2017-07-08T07:46:47.342Z,247.50
2017-07-08T07:47:47.373Z,247.50
2017-07-08T07:48:47.292Z,270.00
2017-07-08T07:49:47.386Z,270.00
2017-07-08T07:50:47.302Z,270.00
2017-07-08T07:51:47.361Z,180.00
2017-07-08T07:52:47.386Z,180.00
2017-07-08T07:53:47.389Z,157.50
2017-07-08T07:54:47.302Z,202.50
2017-07-08T07:55:47.381Z,180.00
2017-07-08T07:56:47.386Z,225.00
2017-07-08T07:57:47.383Z,180.00
2017-07-08T07:58:47.371Z,270.00
2017-07-08T07:59:47.308Z,225.00
2017-07-08T08:00:47.350Z,247.50
2017-07-08T08:01:47.370Z,135.00
2017-07-08T08:02:47.373Z,202.50
2017-07-08T08:03:47.348Z,292.50
2017-07-08T08:04:47.399Z,180.00
2017-07-08T08:05:47.351Z,180.00
2017-07-08T08:06:47.385Z,270.00
2017-07-08T08:07:47.400Z,180.00
2017-07-08T08:08:47.390Z,270.00
2017-07-08T08:09:47.390Z,225.00
2017-07-08T08:10:47.313Z,225.00
2017-07-08T08:11:47.369Z,180.00
2017-07-08T08:12:47.413Z,180.00
2017-07-08T08:13:47.387Z,180.00
2017-07-08T08:14:47.326Z,180.00
2017-07-08T08:15:47.391Z,270.00
2017-07-08T08:16:47.389Z,225.00
2017-07-08T08:17:47.392Z,180.00
2017-07-08T08:18:47.394Z,180.00
2017-07-08T08:19:47.372Z,202.50
2017-07-08T08:20:47.407Z,157.50
2017-07-08T08:21:47.315Z,157.50
2017-07-08T08:22:47.394Z,180.00
2017-07-08T08:23:47.390Z,180.00
2017-07-08T08:24:47.396Z,225.00
2017-07-08T08:25:47.402Z,202.50
2017-07-08T08:26:47.372Z,157.50
2017-07-08T08:27:47.373Z,180.00
2017-07-08T08:28:47.370Z,225.00
2017-07-08T08:29:47.370Z,292.50
2017-07-08T08:30:47.374Z,202.50
2017-07-08T08:31:47.373Z,202.50
2017-07-08T08:32:47.372Z,135.00
2017-07-08T08:33:47.379Z,225.00
2017-07-08T08:34:47.376Z,247.50
2017-07-08T08:35:47.376Z,292.50
2017-07-08T08:36:47.330Z,292.50
2017-07-08T08:37:47.391Z,270.00
2017-07-08T08:38:47.324Z,270.00
2017-07-08T08:39:47.331Z,202.50
2017-07-08T08:40:47.408Z,157.50
2017-07-08T08:41:47.371Z,157.50
2017-07-08T08:42:47.424Z,180.00
2017-07-08T08:43:47.331Z,202.50
2017-07-08T08:44:47.408Z,157.50
2017-07-08T08:45:47.415Z,247.50
2017-07-08T08:46:47.405Z,225.00
2017-07-08T08:47:47.396Z,225.00
2017-07-08T08:48:47.396Z,180.00
2017-07-08T08:49:47.395Z,180.00
2017-07-08T08:50:47.399Z,202.50
2017-07-08T08:51:47.401Z,225.00
2017-07-08T08:52:47.398Z,247.50
2017-07-08T08:53:47.399Z,247.50
2017-07-08T08:54:47.397Z,180.00
2017-07-08T08:55:47.400Z,180.00
2017-07-08T08:56:47.388Z,180.00
2017-07-08T08:57:47.488Z,202.50
2017-07-08T08:58:47.388Z,202.50
2017-07-08T08:59:47.489Z,202.50
2017-07-08T09:00:47.390Z,157.50
2017-07-08T09:01:47.391Z,225.00
2017-07-08T09:02:47.395Z,225.00
2017-07-08T09:03:47.389Z,225.00
2017-07-08T09:04:47.391Z,180.00
2017-07-08T09:05:47.392Z,270.00
2017-07-08T09:06:47.409Z,180.00
2017-07-08T09:07:47.403Z,180.00
2017-07-08T09:08:47.320Z,247.50
2017-07-08T09:09:47.411Z,247.50
2017-07-08T09:10:47.406Z,270.00
2017-07-08T09:11:47.410Z,247.50
2017-07-08T09:12:47.493Z,270.00
2017-07-08T09:13:47.406Z,225.00
2017-07-08T09:14:47.412Z,157.50
2017-07-08T09:15:47.416Z,157.50
2017-07-08T09:16:47.401Z,180.00
2017-07-08T09:17:47.398Z,180.00
2017-07-08T09:18:47.398Z,180.00
2017-07-08T09:19:47.399Z,180.00
2017-07-08T09:20:47.397Z,202.50
2017-07-08T09:21:47.398Z,180.00
2017-07-08T09:22:47.397Z,180.00
2017-07-08T09:23:47.402Z,157.50
2017-07-08T09:24:47.402Z,180.00
2017-07-08T09:25:47.403Z,157.50
2017-07-08T09:26:47.404Z,157.50
2017-07-08T09:27:47.434Z,202.50
2017-07-08T09:28:47.437Z,202.50
2017-07-08T09:29:47.392Z,157.50
2017-07-08T09:30:47.354Z,202.50
2017-07-08T09:31:47.427Z,202.50
2017-07-08T09:32:47.412Z,247.50
2017-07-08T09:33:47.353Z,180.00
2017-07-08T09:34:47.379Z,225.00
2017-07-08T09:35:47.350Z,247.50
2017-07-08T09:36:47.436Z,202.50
2017-07-08T09:37:47.421Z,270.00
2017-07-08T09:38:47.421Z,112.50
2017-07-08T09:39:47.423Z,202.50
2017-07-08T09:40:47.421Z,135.00
2017-07-08T09:41:47.423Z,180.00
2017-07-08T09:42:47.423Z,135.00
2017-07-08T09:43:47.423Z,225.00
2017-07-08T09:44:47.352Z,247.50
2017-07-08T09:45:47.423Z,247.50
2017-07-08T09:46:47.428Z,202.50
2017-07-08T09:47:47.364Z,225.00
2017-07-08T09:48:47.426Z,202.50
2017-07-08T09:49:47.446Z,225.00
2017-07-08T09:50:47.455Z,292.50
2017-07-08T09:51:47.447Z,270.00
2017-07-08T09:52:47.366Z,270.00
2017-07-08T09:53:47.428Z,157.50
2017-07-08T09:54:47.459Z,225.00
2017-07-08T09:55:47.459Z,292.50
2017-07-08T09:56:47.431Z,225.00
2017-07-08T09:57:47.362Z,225.00
2017-07-08T09:58:47.368Z,202.50
2017-07-08T09:59:47.446Z,157.50
2017-07-08T10:00:47.409Z,247.50
2017-07-08T10:01:47.453Z,202.50
2017-07-08T10:02:47.433Z,247.50
2017-07-08T10:03:47.453Z,247.50
2017-07-08T10:04:47.460Z,225.00
2017-07-08T10:05:47.398Z,247.50
2017-07-08T10:06:47.455Z,270.00
2017-07-08T10:07:47.430Z,157.50
2017-07-08T10:08:47.426Z,202.50
2017-07-08T10:09:47.431Z,180.00
2017-07-08T10:10:47.430Z,247.50
2017-07-08T10:11:47.432Z,270.00
2017-07-08T10:12:47.431Z,225.00
2017-07-08T10:13:47.437Z,270.00
2017-07-08T10:14:47.428Z,225.00
2017-07-08T10:15:47.435Z,180.00
2017-07-08T10:16:47.433Z,135.00
2017-07-08T10:17:47.485Z,202.50
2017-07-08T10:18:47.445Z,225.00
2017-07-08T10:19:47.443Z,225.00
2017-07-08T10:20:47.446Z,157.50
2017-07-08T10:21:47.445Z,225.00
2017-07-08T10:22:47.462Z,202.50
2017-07-08T10:23:47.444Z,225.00
2017-07-08T10:24:47.448Z,225.00
2017-07-08T10:25:47.447Z,225.00
2017-07-08T10:26:47.449Z,247.50
2017-07-08T10:27:47.449Z,157.50
2017-07-08T10:28:47.466Z,225.00
2017-07-08T10:29:47.449Z,157.50
2017-07-08T10:30:47.453Z,225.00
2017-07-08T10:31:47.452Z,247.50
2017-07-08T10:32:47.452Z,225.00
2017-07-08T10:33:47.454Z,270.00
2017-07-08T10:34:47.480Z,157.50
2017-07-08T10:35:47.450Z,247.50
2017-07-08T10:36:47.456Z,247.50
2017-07-08T10:37:47.374Z,225.00
2017-07-08T10:38:47.380Z,247.50
2017-07-08T10:39:47.432Z,270.00
2017-07-08T10:40:47.389Z,292.50
2017-07-08T10:41:47.376Z,270.00
2017-07-08T10:42:47.425Z,292.50
2017-07-08T10:43:47.421Z,202.50
2017-07-08T10:44:47.417Z,225.00
2017-07-08T10:45:47.419Z,247.50
2017-07-08T10:46:47.388Z,225.00
2017-07-08T10:47:47.460Z,157.50
2017-07-08T10:48:47.464Z,202.50
2017-07-08T10:49:47.461Z,180.00
2017-07-08T10:50:47.461Z,157.50
2017-07-08T10:51:47.469Z,157.50
2017-07-08T10:52:47.459Z,180.00
2017-07-08T10:53:47.467Z,157.50
2017-07-08T10:54:47.462Z,180.00
2017-07-08T10:55:47.467Z,225.00
2017-07-08T10:56:47.464Z,247.50
2017-07-08T10:57:47.456Z,112.50
2017-07-08T10:58:47.454Z,112.50
2017-07-08T10:59:47.458Z,202.50
2017-07-08T11:00:47.456Z,225.00
2017-07-08T11:01:47.459Z,247.50
2017-07-08T11:02:47.459Z,270.00
2017-07-08T11:03:47.458Z,292.50
2017-07-08T11:04:47.462Z,112.50
2017-07-08T11:05:47.461Z,180.00
2017-07-08T11:06:47.459Z,180.00
2017-07-08T11:07:47.468Z,112.50
2017-07-08T11:08:47.488Z,135.00
2017-07-08T11:09:47.492Z,157.50
2017-07-08T11:10:47.474Z,157.50
2017-07-08T11:11:47.468Z,270.00
2017-07-08T11:12:47.491Z,292.50
2017-07-08T11:13:47.494Z,90.00
2017-07-08T11:14:47.499Z,225.00
2017-07-08T11:15:47.419Z,270.00
2017-07-08T11:16:47.494Z,247.50
2017-07-08T11:17:47.407Z,225.00
2017-07-08T11:18:47.495Z,202.50
2017-07-08T11:19:47.499Z,202.50
2017-07-08T11:20:47.479Z,247.50
2017-07-08T11:21:47.496Z,247.50
2017-07-08T11:22:47.502Z,247.50
2017-07-08T11:23:47.483Z,270.00
2017-07-08T11:24:47.480Z,270.00
2017-07-08T11:25:47.496Z,247.50
2017-07-08T11:26:47.481Z,202.50
2017-07-08T11:27:47.487Z,270.00
2017-07-08T11:28:47.493Z,315.00
2017-07-08T11:29:47.488Z,292.50
2017-07-08T11:30:47.486Z,270.00
2017-07-08T11:31:47.492Z,292.50
2017-07-08T11:32:47.575Z,247.50
2017-07-08T11:33:47.487Z,292.50
2017-07-08T11:34:47.489Z,292.50
2017-07-08T11:35:47.488Z,292.50
2017-07-08T11:36:47.493Z,292.50
2017-07-08T11:37:47.514Z,202.50
2017-07-08T11:38:47.423Z,292.50
2017-07-08T11:39:47.424Z,270.00
2017-07-08T11:40:47.427Z,202.50
2017-07-08T11:41:47.516Z,202.50
2017-07-08T11:42:47.515Z,202.50
2017-07-08T11:43:47.515Z,180.00
2017-07-08T11:44:47.426Z,202.50
2017-07-08T11:45:47.515Z,202.50
2017-07-08T11:46:47.510Z,247.50
2017-07-08T11:47:47.486Z,112.50
2017-07-08T11:48:47.488Z,247.50
2017-07-08T11:49:47.490Z,270.00
2017-07-08T11:50:47.489Z,202.50
2017-07-08T11:51:47.486Z,247.50
2017-07-08T11:52:47.486Z,270.00
2017-07-08T11:53:47.490Z,315.00
2017-07-08T11:54:47.491Z,292.50
2017-07-08T11:55:47.488Z,180.00
2017-07-08T11:56:47.496Z,247.50
2017-07-08T11:57:47.526Z,270.00
2017-07-08T11:58:47.535Z,247.50
2017-07-08T11:59:47.482Z,225.00
2017-07-08T12:00:47.499Z,292.50
2017-07-08T12:01:47.445Z,270.00
2017-07-08T12:02:47.523Z,247.50
2017-07-08T12:03:47.437Z,292.50
2017-07-08T12:04:47.526Z,270.00
2017-07-08T12:05:47.525Z,247.50
2017-07-08T12:06:47.523Z,270.00
2017-07-08T12:07:47.508Z,270.00
2017-07-08T12:08:47.509Z,292.50
2017-07-08T12:09:47.518Z,270.00
2017-07-08T12:10:47.523Z,292.50
2017-07-08T12:11:47.507Z,292.50
2017-07-08T12:12:47.510Z,270.00
2017-07-08T12:13:47.510Z,202.50
2017-07-08T12:14:47.592Z,247.50
2017-07-08T12:15:47.512Z,247.50
2017-07-08T12:16:47.513Z,292.50
2017-07-08T12:17:47.539Z,270.00
2017-07-08T12:18:47.539Z,270.00
2017-07-08T12:19:47.534Z,270.00
2017-07-08T12:20:47.496Z,270.00
2017-07-08T12:21:47.511Z,270.00
2017-07-08T12:22:47.516Z,270.00
2017-07-08T12:23:47.531Z,270.00
2017-07-08T12:24:47.513Z,247.50
2017-07-08T12:25:47.452Z,180.00
2017-07-08T12:26:47.546Z,180.00
2017-07-08T12:27:47.454Z,247.50
2017-07-08T12:28:47.516Z,247.50
2017-07-08T12:29:47.461Z,270.00
2017-07-08T12:30:47.520Z,292.50
2017-07-08T12:31:47.541Z,270.00
2017-07-08T12:32:47.540Z,270.00
2017-07-08T12:33:47.549Z,247.50
2017-07-08T12:34:47.458Z,270.00
2017-07-08T12:35:47.544Z,225.00
2017-07-08T12:36:47.549Z,157.50